ABW172 UUWW-ULLI
Flight info
| Callsign | ABW172 |
|---|---|
| Flight time | N/A |
| Altitude | 34000 |
| Route | SUNUN3D SUNUN M869 RAVKA N50 NUDKO T561 ODATI T875 GENPA GENPA1B |
| Aircraft | B77L/H-SDE1E2E3FGHIJ2J3J4J5M1RWXY/LB1D1 |
Departure
| Time | 2026-05-01 13:47 |
|---|---|
| Airport | Vnukovo International Airport (UUWW) |
Arrival
| Time | N/A |
|---|---|
| Airport | Pulkovo Airport (ULLI) |
| Time | Latitude | Longitude | Altitude | Speed | Heading |
|---|---|---|---|---|---|
| 2026-05-01 12:42 | 55.60697 | 37.28087 | 703 ft | 0 kts | 45° |
| 2026-05-01 13:33 | 55.60697 | 37.28088 | 703 ft | 0 kts | 45° |
| 2026-05-01 13:33 | 55.60698 | 37.28088 | 703 ft | 0 kts | 45° |
| 2026-05-01 13:34 | 55.60698 | 37.28089 | 703 ft | 0 kts | 45° |
| 2026-05-01 13:34 | 55.60695 | 37.28084 | 703 ft | 0 kts | 45° |
| 2026-05-01 13:35 | 55.60672 | 37.28040 | 703 ft | 0 kts | 71° |
| 2026-05-01 13:35 | 55.60671 | 37.28029 | 703 ft | 2 kts | 82° |
| 2026-05-01 13:35 | 55.60675 | 37.27955 | 703 ft | 2 kts | 118° |
| 2026-05-01 13:36 | 55.60680 | 37.27940 | 703 ft | 0 kts | 130° |
| 2026-05-01 13:36 | 55.60674 | 37.27955 | 703 ft | 3 kts | 128° |
| 2026-05-01 13:36 | 55.60660 | 37.27982 | 703 ft | 0 kts | 133° |
| 2026-05-01 13:40 | 55.60660 | 37.27983 | 703 ft | 0 kts | 133° |
| 2026-05-01 13:40 | 55.60657 | 37.27989 | 703 ft | 2 kts | 133° |
| 2026-05-01 13:40 | 55.60621 | 37.28054 | 703 ft | 9 kts | 135° |
| 2026-05-01 13:40 | 55.60565 | 37.28122 | 703 ft | 10 kts | 175° |
| 2026-05-01 13:41 | 55.60502 | 37.28046 | 703 ft | 12 kts | 225° |
| 2026-05-01 13:41 | 55.60434 | 37.27925 | 703 ft | 13 kts | 225° |
| 2026-05-01 13:41 | 55.60350 | 37.27855 | 703 ft | 13 kts | 187° |
| 2026-05-01 13:41 | 55.60260 | 37.27839 | 703 ft | 12 kts | 185° |
| 2026-05-01 13:42 | 55.60180 | 37.27853 | 703 ft | 11 kts | 158° |
| 2026-05-01 13:42 | 55.60114 | 37.27932 | 703 ft | 12 kts | 132° |
| 2026-05-01 13:42 | 55.60077 | 37.28067 | 703 ft | 12 kts | 100° |
| 2026-05-01 13:42 | 55.60077 | 37.28209 | 703 ft | 10 kts | 82° |
| 2026-05-01 13:43 | 55.60088 | 37.28335 | 703 ft | 10 kts | 80° |
| 2026-05-01 13:43 | 55.60124 | 37.28482 | 703 ft | 15 kts | 49° |
| 2026-05-01 13:43 | 55.60196 | 37.28620 | 703 ft | 14 kts | 55° |
| 2026-05-01 13:43 | 55.60175 | 37.28764 | 703 ft | 12 kts | 131° |
| 2026-05-01 13:44 | 55.60114 | 37.28861 | 703 ft | 11 kts | 151° |
| 2026-05-01 13:44 | 55.60041 | 37.28900 | 703 ft | 10 kts | 165° |
| 2026-05-01 13:44 | 55.59977 | 37.28927 | 703 ft | 7 kts | 167° |
| 2026-05-01 13:44 | 55.59944 | 37.28940 | 703 ft | 2 kts | 167° |
| 2026-05-01 13:45 | 55.59938 | 37.28943 | 703 ft | 0 kts | 168° |
| 2026-05-01 13:45 | 55.59929 | 37.28946 | 703 ft | 5 kts | 167° |
| 2026-05-01 13:46 | 55.59870 | 37.28972 | 703 ft | 9 kts | 165° |
| 2026-05-01 13:46 | 55.59808 | 37.28959 | 703 ft | 9 kts | 218° |
| 2026-05-01 13:46 | 55.59766 | 37.28854 | 703 ft | 10 kts | 245° |
| 2026-05-01 13:46 | 55.59718 | 37.28652 | 703 ft | 41 kts | 248° |
| 2026-05-01 13:47 | 55.59525 | 37.27799 | 703 ft | 109 kts | 248° |
| 2026-05-01 13:47 | 55.59162 | 37.26171 | 705 ft | 169 kts | 249° |
| 2026-05-01 13:47 | 55.58707 | 37.24081 | 1084 ft | 184 kts | 249° |
| 2026-05-01 13:47 | 55.58141 | 37.21984 | 1678 ft | 200 kts | 235° |
| 2026-05-01 13:48 | 55.57202 | 37.20186 | 2307 ft | 204 kts | 227° |
| 2026-05-01 13:48 | 55.56239 | 37.18224 | 2701 ft | 219 kts | 233° |
| 2026-05-01 13:48 | 55.55349 | 37.16081 | 3517 ft | 216 kts | 238° |
| 2026-05-01 13:48 | 55.54652 | 37.13576 | 3711 ft | 243 kts | 256° |
| 2026-05-01 13:49 | 55.54436 | 37.10468 | 3928 ft | 271 kts | 272° |
| 2026-05-01 13:49 | 55.54701 | 37.06975 | 4095 ft | 299 kts | 286° |
| 2026-05-01 13:49 | 55.55562 | 37.03561 | 4715 ft | 304 kts | 311° |
| 2026-05-01 13:49 | 55.57245 | 37.01517 | 5460 ft | 308 kts | 342° |